sensor_id;sensor_type;location;lat;lon;timestamp;P1;durP1;ratioP1;P2;durP2;ratioP2
14116;SDS011;7137;51.436;6.544;2023-12-28T00:02:42;3.97;;;1.70;;
14116;SDS011;7137;51.436;6.544;2023-12-28T00:05:43;4.07;;;1.90;;
14116;SDS011;7137;51.436;6.544;2023-12-28T00:08:45;3.23;;;1.70;;
14116;SDS011;7137;51.436;6.544;2023-12-28T00:11:46;3.00;;;1.70;;
14116;SDS011;7137;51.436;6.544;2023-12-28T00:14:49;4.07;;;1.70;;
14116;SDS011;7137;51.436;6.544;2023-12-28T00:17:51;3.83;;;1.83;;
14116;SDS011;7137;51.436;6.544;2023-12-28T00:20:52;4.00;;;1.80;;
14116;SDS011;7137;51.436;6.544;2023-12-28T00:23:54;4.27;;;1.97;;
14116;SDS011;7137;51.436;6.544;2023-12-28T00:26:56;3.97;;;1.97;;
14116;SDS011;7137;51.436;6.544;2023-12-28T00:29:59;4.47;;;2.27;;
14116;SDS011;7137;51.436;6.544;2023-12-28T00:33:00;4.33;;;2.10;;
14116;SDS011;7137;51.436;6.544;2023-12-28T00:36:02;3.93;;;1.80;;
14116;SDS011;7137;51.436;6.544;2023-12-28T00:39:04;4.33;;;2.00;;
14116;SDS011;7137;51.436;6.544;2023-12-28T00:42:06;3.23;;;1.73;;
14116;SDS011;7137;51.436;6.544;2023-12-28T00:45:09;3.80;;;1.80;;
14116;SDS011;7137;51.436;6.544;2023-12-28T00:48:11;3.97;;;2.00;;
14116;SDS011;7137;51.436;6.544;2023-12-28T00:51:13;3.80;;;1.90;;
14116;SDS011;7137;51.436;6.544;2023-12-28T00:54:15;3.53;;;1.90;;
14116;SDS011;7137;51.436;6.544;2023-12-28T00:57:16;6.10;;;2.00;;
14116;SDS011;7137;51.436;6.544;2023-12-28T01:00:19;4.67;;;2.00;;
14116;SDS011;7137;51.436;6.544;2023-12-28T01:03:21;4.73;;;1.90;;
14116;SDS011;7137;51.436;6.544;2023-12-28T01:06:22;3.97;;;2.00;;
14116;SDS011;7137;51.436;6.544;2023-12-28T01:09:27;4.43;;;2.00;;
14116;SDS011;7137;51.436;6.544;2023-12-28T01:12:29;4.23;;;1.67;;
14116;SDS011;7137;51.436;6.544;2023-12-28T01:15:32;4.83;;;1.97;;
14116;SDS011;7137;51.436;6.544;2023-12-28T01:18:33;3.43;;;1.63;;
14116;SDS011;7137;51.436;6.544;2023-12-28T01:21:35;3.30;;;1.93;;
14116;SDS011;7137;51.436;6.544;2023-12-28T01:24:36;3.97;;;2.07;;
14116;SDS011;7137;51.436;6.544;2023-12-28T01:27:38;4.37;;;2.27;;
14116;SDS011;7137;51.436;6.544;2023-12-28T01:30:41;4.67;;;2.00;;
14116;SDS011;7137;51.436;6.544;2023-12-28T01:33:44;4.27;;;2.57;;
14116;SDS011;7137;51.436;6.544;2023-12-28T01:36:45;3.73;;;2.30;;
14116;SDS011;7137;51.436;6.544;2023-12-28T01:39:47;3.93;;;2.17;;
14116;SDS011;7137;51.436;6.544;2023-12-28T01:42:48;4.50;;;2.40;;
14116;SDS011;7137;51.436;6.544;2023-12-28T01:45:51;5.30;;;2.50;;
14116;SDS011;7137;51.436;6.544;2023-12-28T01:48:53;4.57;;;2.00;;
14116;SDS011;7137;51.436;6.544;2023-12-28T01:51:55;4.03;;;2.20;;
14116;SDS011;7137;51.436;6.544;2023-12-28T01:54:56;4.57;;;2.30;;
14116;SDS011;7137;51.436;6.544;2023-12-28T01:57:58;4.30;;;2.13;;
14116;SDS011;7137;51.436;6.544;2023-12-28T02:01:01;5.27;;;2.60;;
14116;SDS011;7137;51.436;6.544;2023-12-28T02:04:03;4.40;;;2.37;;
14116;SDS011;7137;51.436;6.544;2023-12-28T02:07:04;3.90;;;2.17;;
14116;SDS011;7137;51.436;6.544;2023-12-28T02:10:07;5.60;;;2.43;;
14116;SDS011;7137;51.436;6.544;2023-12-28T02:13:09;4.70;;;2.07;;
14116;SDS011;7137;51.436;6.544;2023-12-28T02:16:13;5.70;;;2.40;;
14116;SDS011;7137;51.436;6.544;2023-12-28T02:19:19;6.77;;;2.70;;
14116;SDS011;7137;51.436;6.544;2023-12-28T02:22:27;5.80;;;2.50;;
14116;SDS011;7137;51.436;6.544;2023-12-28T02:25:31;5.57;;;2.37;;
14116;SDS011;7137;51.436;6.544;2023-12-28T02:28:32;5.27;;;2.50;;
14116;SDS011;7137;51.436;6.544;2023-12-28T02:31:35;4.50;;;2.40;;
14116;SDS011;7137;51.436;6.544;2023-12-28T02:34:44;4.90;;;2.30;;
14116;SDS011;7137;51.436;6.544;2023-12-28T02:37:49;5.30;;;2.67;;
14116;SDS011;7137;51.436;6.544;2023-12-28T02:40:54;6.23;;;2.50;;
14116;SDS011;7137;51.436;6.544;2023-12-28T02:43:57;4.17;;;2.23;;
14116;SDS011;7137;51.436;6.544;2023-12-28T02:46:59;5.60;;;2.43;;
14116;SDS011;7137;51.436;6.544;2023-12-28T02:50:01;7.87;;;2.83;;
14116;SDS011;7137;51.436;6.544;2023-12-28T02:53:02;4.83;;;2.50;;
14116;SDS011;7137;51.436;6.544;2023-12-28T02:56:06;4.80;;;2.70;;
14116;SDS011;7137;51.436;6.544;2023-12-28T02:59:07;5.60;;;2.20;;
14116;SDS011;7137;51.436;6.544;2023-12-28T03:02:09;6.37;;;2.70;;
14116;SDS011;7137;51.436;6.544;2023-12-28T03:05:11;5.97;;;2.50;;
14116;SDS011;7137;51.436;6.544;2023-12-28T03:08:12;5.60;;;2.53;;
14116;SDS011;7137;51.436;6.544;2023-12-28T03:11:15;5.70;;;2.57;;
14116;SDS011;7137;51.436;6.544;2023-12-28T03:14:17;5.57;;;2.43;;
14116;SDS011;7137;51.436;6.544;2023-12-28T03:17:18;6.57;;;2.50;;
14116;SDS011;7137;51.436;6.544;2023-12-28T03:20:20;5.20;;;2.40;;
14116;SDS011;7137;51.436;6.544;2023-12-28T03:23:22;4.70;;;2.43;;
14116;SDS011;7137;51.436;6.544;2023-12-28T03:26:25;4.87;;;2.30;;
14116;SDS011;7137;51.436;6.544;2023-12-28T03:29:26;5.07;;;2.40;;
14116;SDS011;7137;51.436;6.544;2023-12-28T03:32:28;5.43;;;2.57;;
14116;SDS011;7137;51.436;6.544;2023-12-28T03:39:08;6.17;;;2.87;;
14116;SDS011;7137;51.436;6.544;2023-12-28T03:42:11;5.43;;;2.70;;
14116;SDS011;7137;51.436;6.544;2023-12-28T03:45:13;5.40;;;2.80;;
14116;SDS011;7137;51.436;6.544;2023-12-28T03:48:14;6.17;;;2.50;;
14116;SDS011;7137;51.436;6.544;2023-12-28T03:51:16;5.57;;;2.53;;
14116;SDS011;7137;51.436;6.544;2023-12-28T03:54:18;4.43;;;2.40;;
14116;SDS011;7137;51.436;6.544;2023-12-28T03:57:21;5.63;;;2.90;;
14116;SDS011;7137;51.436;6.544;2023-12-28T04:00:23;5.70;;;2.70;;
14116;SDS011;7137;51.436;6.544;2023-12-28T04:03:24;4.80;;;2.60;;
14116;SDS011;7137;51.436;6.544;2023-12-28T04:06:26;5.03;;;2.43;;
14116;SDS011;7137;51.436;6.544;2023-12-28T04:09:28;7.47;;;2.60;;
14116;SDS011;7137;51.436;6.544;2023-12-28T04:12:30;6.40;;;2.50;;
14116;SDS011;7137;51.436;6.544;2023-12-28T04:15:32;5.60;;;2.53;;
14116;SDS011;7137;51.436;6.544;2023-12-28T04:18:33;4.57;;;2.20;;
14116;SDS011;7137;51.436;6.544;2023-12-28T04:21:35;5.13;;;2.53;;
14116;SDS011;7137;51.436;6.544;2023-12-28T04:24:36;5.20;;;2.60;;
14116;SDS011;7137;51.436;6.544;2023-12-28T04:27:39;4.57;;;2.50;;
14116;SDS011;7137;51.436;6.544;2023-12-28T04:30:42;5.27;;;2.50;;
14116;SDS011;7137;51.436;6.544;2023-12-28T04:33:43;5.23;;;2.30;;
14116;SDS011;7137;51.436;6.544;2023-12-28T04:36:45;6.97;;;2.50;;
14116;SDS011;7137;51.436;6.544;2023-12-28T04:39:46;5.70;;;2.40;;
14116;SDS011;7137;51.436;6.544;2023-12-28T04:42:49;4.27;;;2.23;;
14116;SDS011;7137;51.436;6.544;2023-12-28T04:45:51;4.97;;;2.20;;
14116;SDS011;7137;51.436;6.544;2023-12-28T04:48:52;5.70;;;2.50;;
14116;SDS011;7137;51.436;6.544;2023-12-28T04:51:54;5.57;;;2.50;;
14116;SDS011;7137;51.436;6.544;2023-12-28T04:54:55;5.47;;;2.50;;
14116;SDS011;7137;51.436;6.544;2023-12-28T04:57:58;5.63;;;2.67;;
14116;SDS011;7137;51.436;6.544;2023-12-28T05:01:00;6.97;;;2.40;;
14116;SDS011;7137;51.436;6.544;2023-12-28T05:04:02;5.97;;;2.33;;
14116;SDS011;7137;51.436;6.544;2023-12-28T05:07:04;4.90;;;2.27;;
14116;SDS011;7137;51.436;6.544;2023-12-28T05:10:06;5.97;;;2.27;;
14116;SDS011;7137;51.436;6.544;2023-12-28T05:13:09;6.00;;;2.33;;
14116;SDS011;7137;51.436;6.544;2023-12-28T05:16:10;4.80;;;1.97;;
14116;SDS011;7137;51.436;6.544;2023-12-28T05:19:12;5.93;;;2.30;;
14116;SDS011;7137;51.436;6.544;2023-12-28T05:22:13;6.80;;;2.30;;
14116;SDS011;7137;51.436;6.544;2023-12-28T05:25:15;6.10;;;2.10;;
14116;SDS011;7137;51.436;6.544;2023-12-28T05:28:18;4.93;;;2.00;;
14116;SDS011;7137;51.436;6.544;2023-12-28T05:31:19;6.00;;;2.20;;
14116;SDS011;7137;51.436;6.544;2023-12-28T05:34:20;6.33;;;2.40;;
14116;SDS011;7137;51.436;6.544;2023-12-28T05:37:22;5.27;;;2.17;;
14116;SDS011;7137;51.436;6.544;2023-12-28T05:40:23;6.30;;;2.03;;
14116;SDS011;7137;51.436;6.544;2023-12-28T05:43:26;6.80;;;2.20;;
14116;SDS011;7137;51.436;6.544;2023-12-28T05:46:27;5.63;;;2.10;;
14116;SDS011;7137;51.436;6.544;2023-12-28T05:49:29;5.03;;;2.10;;
14116;SDS011;7137;51.436;6.544;2023-12-28T05:52:31;7.77;;;2.30;;
14116;SDS011;7137;51.436;6.544;2023-12-28T05:55:32;5.80;;;2.00;;
14116;SDS011;7137;51.436;6.544;2023-12-28T05:58:35;5.27;;;1.93;;
14116;SDS011;7137;51.436;6.544;2023-12-28T06:01:41;5.80;;;2.30;;
14116;SDS011;7137;51.436;6.544;2023-12-28T06:04:44;5.57;;;2.20;;
14116;SDS011;7137;51.436;6.544;2023-12-28T06:07:45;6.23;;;2.27;;
14116;SDS011;7137;51.436;6.544;2023-12-28T06:10:46;5.07;;;1.80;;
14116;SDS011;7137;51.436;6.544;2023-12-28T06:13:49;6.03;;;2.10;;
14116;SDS011;7137;51.436;6.544;2023-12-28T06:16:51;6.10;;;1.77;;
14116;SDS011;7137;51.436;6.544;2023-12-28T06:19:52;7.90;;;2.23;;
14116;SDS011;7137;51.436;6.544;2023-12-28T06:22:54;6.63;;;2.40;;
14116;SDS011;7137;51.436;6.544;2023-12-28T06:25:55;8.80;;;2.10;;
14116;SDS011;7137;51.436;6.544;2023-12-28T06:28:58;6.17;;;1.80;;
14116;SDS011;7137;51.436;6.544;2023-12-28T06:31:59;6.43;;;2.27;;
14116;SDS011;7137;51.436;6.544;2023-12-28T06:35:01;6.57;;;1.90;;
14116;SDS011;7137;51.436;6.544;2023-12-28T06:38:02;5.97;;;1.70;;
14116;SDS011;7137;51.436;6.544;2023-12-28T06:41:09;7.23;;;2.07;;
14116;SDS011;7137;51.436;6.544;2023-12-28T06:44:13;6.40;;;2.00;;
14116;SDS011;7137;51.436;6.544;2023-12-28T06:47:14;8.13;;;2.17;;
14116;SDS011;7137;51.436;6.544;2023-12-28T06:50:16;7.33;;;1.83;;
14116;SDS011;7137;51.436;6.544;2023-12-28T06:53:17;8.93;;;2.10;;
14116;SDS011;7137;51.436;6.544;2023-12-28T06:56:19;9.30;;;2.30;;
14116;SDS011;7137;51.436;6.544;2023-12-28T06:59:22;7.23;;;2.40;;
14116;SDS011;7137;51.436;6.544;2023-12-28T07:02:23;7.87;;;2.20;;
14116;SDS011;7137;51.436;6.544;2023-12-28T07:05:24;6.07;;;2.10;;
14116;SDS011;7137;51.436;6.544;2023-12-28T07:08:26;8.57;;;2.00;;
14116;SDS011;7137;51.436;6.544;2023-12-28T07:11:27;8.60;;;2.20;;
14116;SDS011;7137;51.436;6.544;2023-12-28T07:14:30;7.17;;;2.20;;
14116;SDS011;7137;51.436;6.544;2023-12-28T07:17:31;8.70;;;2.20;;
14116;SDS011;7137;51.436;6.544;2023-12-28T07:20:33;11.37;;;2.03;;
14116;SDS011;7137;51.436;6.544;2023-12-28T07:23:35;8.80;;;2.37;;
14116;SDS011;7137;51.436;6.544;2023-12-28T07:26:36;7.80;;;1.97;;
14116;SDS011;7137;51.436;6.544;2023-12-28T07:29:40;8.67;;;2.07;;
14116;SDS011;7137;51.436;6.544;2023-12-28T07:32:41;7.53;;;1.80;;
14116;SDS011;7137;51.436;6.544;2023-12-28T07:35:43;7.27;;;1.90;;
14116;SDS011;7137;51.436;6.544;2023-12-28T07:38:44;7.67;;;1.97;;
14116;SDS011;7137;51.436;6.544;2023-12-28T07:41:46;10.87;;;2.13;;
14116;SDS011;7137;51.436;6.544;2023-12-28T07:44:48;9.13;;;2.30;;
14116;SDS011;7137;51.436;6.544;2023-12-28T07:47:50;6.33;;;2.40;;
14116;SDS011;7137;51.436;6.544;2023-12-28T07:50:51;9.60;;;2.70;;
14116;SDS011;7137;51.436;6.544;2023-12-28T07:53:53;8.83;;;2.03;;
14116;SDS011;7137;51.436;6.544;2023-12-28T07:56:55;8.53;;;2.13;;
14116;SDS011;7137;51.436;6.544;2023-12-28T07:59:57;7.23;;;2.00;;
14116;SDS011;7137;51.436;6.544;2023-12-28T08:02:59;9.37;;;2.10;;
14116;SDS011;7137;51.436;6.544;2023-12-28T08:06:00;11.40;;;2.67;;
14116;SDS011;7137;51.436;6.544;2023-12-28T08:09:02;8.90;;;1.93;;
14116;SDS011;7137;51.436;6.544;2023-12-28T08:12:04;8.60;;;2.13;;
14116;SDS011;7137;51.436;6.544;2023-12-28T08:15:08;10.27;;;2.33;;
14116;SDS011;7137;51.436;6.544;2023-12-28T08:18:10;12.23;;;2.13;;
14116;SDS011;7137;51.436;6.544;2023-12-28T08:21:11;9.33;;;2.13;;
14116;SDS011;7137;51.436;6.544;2023-12-28T08:24:13;9.57;;;2.07;;
14116;SDS011;7137;51.436;6.544;2023-12-28T08:27:14;11.00;;;3.00;;
14116;SDS011;7137;51.436;6.544;2023-12-28T08:30:17;9.80;;;2.40;;
14116;SDS011;7137;51.436;6.544;2023-12-28T08:33:19;12.27;;;2.40;;
14116;SDS011;7137;51.436;6.544;2023-12-28T08:36:20;10.57;;;2.27;;
14116;SDS011;7137;51.436;6.544;2023-12-28T08:39:22;11.07;;;2.63;;
14116;SDS011;7137;51.436;6.544;2023-12-28T08:42:23;10.73;;;2.20;;
14116;SDS011;7137;51.436;6.544;2023-12-28T08:45:26;9.90;;;2.07;;
14116;SDS011;7137;51.436;6.544;2023-12-28T08:48:28;11.97;;;2.83;;
14116;SDS011;7137;51.436;6.544;2023-12-28T08:51:29;9.20;;;1.93;;
14116;SDS011;7137;51.436;6.544;2023-12-28T08:54:30;9.83;;;2.20;;
14116;SDS011;7137;51.436;6.544;2023-12-28T08:57:32;8.00;;;2.07;;
14116;SDS011;7137;51.436;6.544;2023-12-28T09:00:35;8.90;;;2.00;;
14116;SDS011;7137;51.436;6.544;2023-12-28T09:03:36;10.23;;;2.37;;
14116;SDS011;7137;51.436;6.544;2023-12-28T09:06:38;9.00;;;2.30;;
14116;SDS011;7137;51.436;6.544;2023-12-28T09:09:40;10.30;;;2.23;;
14116;SDS011;7137;51.436;6.544;2023-12-28T09:12:42;9.00;;;2.67;;
14116;SDS011;7137;51.436;6.544;2023-12-28T09:15:45;11.17;;;2.13;;
14116;SDS011;7137;51.436;6.544;2023-12-28T09:18:47;11.47;;;2.53;;
14116;SDS011;7137;51.436;6.544;2023-12-28T09:21:48;10.07;;;2.10;;
14116;SDS011;7137;51.436;6.544;2023-12-28T09:24:49;9.53;;;2.03;;
14116;SDS011;7137;51.436;6.544;2023-12-28T09:27:51;11.37;;;2.30;;
14116;SDS011;7137;51.436;6.544;2023-12-28T09:30:54;11.87;;;2.50;;
14116;SDS011;7137;51.436;6.544;2023-12-28T09:33:56;10.10;;;2.40;;
14116;SDS011;7137;51.436;6.544;2023-12-28T09:36:58;9.73;;;2.20;;
14116;SDS011;7137;51.436;6.544;2023-12-28T09:39:59;12.03;;;2.50;;
14116;SDS011;7137;51.436;6.544;2023-12-28T09:43:03;11.23;;;2.30;;
14116;SDS011;7137;51.436;6.544;2023-12-28T09:46:15;14.70;;;2.70;;
14116;SDS011;7137;51.436;6.544;2023-12-28T09:49:16;12.43;;;2.40;;
14116;SDS011;7137;51.436;6.544;2023-12-28T09:52:18;12.23;;;2.27;;
14116;SDS011;7137;51.436;6.544;2023-12-28T09:55:20;10.17;;;2.30;;
14116;SDS011;7137;51.436;6.544;2023-12-28T09:58:21;9.90;;;1.93;;
14116;SDS011;7137;51.436;6.544;2023-12-28T10:01:24;12.47;;;2.63;;
14116;SDS011;7137;51.436;6.544;2023-12-28T10:04:26;9.80;;;2.20;;
14116;SDS011;7137;51.436;6.544;2023-12-28T10:07:30;11.27;;;2.70;;
14116;SDS011;7137;51.436;6.544;2023-12-28T10:10:32;9.80;;;2.17;;
14116;SDS011;7137;51.436;6.544;2023-12-28T10:13:34;14.50;;;2.43;;
14116;SDS011;7137;51.436;6.544;2023-12-28T10:16:36;10.50;;;1.83;;
14116;SDS011;7137;51.436;6.544;2023-12-28T10:19:41;12.57;;;2.77;;
14116;SDS011;7137;51.436;6.544;2023-12-28T10:22:47;11.30;;;3.10;;
14116;SDS011;7137;51.436;6.544;2023-12-28T10:25:49;10.60;;;2.30;;
14116;SDS011;7137;51.436;6.544;2023-12-28T10:28:56;9.80;;;2.20;;
14116;SDS011;7137;51.436;6.544;2023-12-28T10:32:01;8.77;;;2.07;;
14116;SDS011;7137;51.436;6.544;2023-12-28T10:35:03;7.20;;;2.07;;
14116;SDS011;7137;51.436;6.544;2023-12-28T10:38:05;10.53;;;2.23;;
14116;SDS011;7137;51.436;6.544;2023-12-28T10:41:11;10.80;;;2.37;;
14116;SDS011;7137;51.436;6.544;2023-12-28T10:44:15;10.43;;;2.10;;
14116;SDS011;7137;51.436;6.544;2023-12-28T10:47:21;11.00;;;2.20;;
14116;SDS011;7137;51.436;6.544;2023-12-28T10:50:26;9.37;;;2.57;;
14116;SDS011;7137;51.436;6.544;2023-12-28T10:53:33;9.93;;;2.47;;
14116;SDS011;7137;51.436;6.544;2023-12-28T10:56:41;11.10;;;2.60;;
14116;SDS011;7137;51.436;6.544;2023-12-28T10:59:46;10.43;;;2.57;;
14116;SDS011;7137;51.436;6.544;2023-12-28T11:03:01;10.23;;;2.37;;
14116;SDS011;7137;51.436;6.544;2023-12-28T11:06:05;10.13;;;2.30;;
14116;SDS011;7137;51.436;6.544;2023-12-28T11:09:08;8.83;;;2.20;;
14116;SDS011;7137;51.436;6.544;2023-12-28T11:12:11;11.07;;;2.40;;
14116;SDS011;7137;51.436;6.544;2023-12-28T11:15:12;10.47;;;2.37;;
14116;SDS011;7137;51.436;6.544;2023-12-28T11:18:17;8.73;;;2.20;;
14116;SDS011;7137;51.436;6.544;2023-12-28T11:21:20;12.20;;;2.67;;
14116;SDS011;7137;51.436;6.544;2023-12-28T11:24:24;9.23;;;2.47;;
14116;SDS011;7137;51.436;6.544;2023-12-28T11:27:25;8.93;;;2.10;;
14116;SDS011;7137;51.436;6.544;2023-12-28T11:30:34;9.30;;;2.33;;
14116;SDS011;7137;51.436;6.544;2023-12-28T11:33:43;7.90;;;2.10;;
14116;SDS011;7137;51.436;6.544;2023-12-28T11:36:46;11.10;;;2.20;;
14116;SDS011;7137;51.436;6.544;2023-12-28T11:39:51;9.70;;;2.47;;
14116;SDS011;7137;51.436;6.544;2023-12-28T11:42:53;10.73;;;2.40;;
14116;SDS011;7137;51.436;6.544;2023-12-28T11:45:55;10.80;;;2.70;;
14116;SDS011;7137;51.436;6.544;2023-12-28T11:49:05;9.00;;;2.10;;
14116;SDS011;7137;51.436;6.544;2023-12-28T11:52:08;9.10;;;2.13;;
14116;SDS011;7137;51.436;6.544;2023-12-28T11:55:11;9.70;;;2.40;;
14116;SDS011;7137;51.436;6.544;2023-12-28T11:58:12;8.27;;;1.90;;
14116;SDS011;7137;51.436;6.544;2023-12-28T12:01:14;10.80;;;2.60;;
14116;SDS011;7137;51.436;6.544;2023-12-28T12:04:17;11.27;;;2.63;;
14116;SDS011;7137;51.436;6.544;2023-12-28T12:07:18;9.60;;;2.30;;
14116;SDS011;7137;51.436;6.544;2023-12-28T12:10:20;9.80;;;2.40;;
14116;SDS011;7137;51.436;6.544;2023-12-28T12:13:22;8.90;;;2.07;;
14116;SDS011;7137;51.436;6.544;2023-12-28T12:16:23;9.43;;;2.40;;
14116;SDS011;7137;51.436;6.544;2023-12-28T12:19:26;10.90;;;2.47;;
14116;SDS011;7137;51.436;6.544;2023-12-28T12:22:29;9.77;;;2.33;;
14116;SDS011;7137;51.436;6.544;2023-12-28T12:25:30;10.77;;;2.60;;
14116;SDS011;7137;51.436;6.544;2023-12-28T12:28:32;10.83;;;2.33;;
14116;SDS011;7137;51.436;6.544;2023-12-28T12:31:33;10.33;;;2.40;;
14116;SDS011;7137;51.436;6.544;2023-12-28T12:34:36;12.43;;;2.33;;
14116;SDS011;7137;51.436;6.544;2023-12-28T12:37:40;11.50;;;2.50;;
14116;SDS011;7137;51.436;6.544;2023-12-28T12:40:41;10.73;;;2.30;;
14116;SDS011;7137;51.436;6.544;2023-12-28T12:43:43;9.17;;;2.00;;
14116;SDS011;7137;51.436;6.544;2023-12-28T12:46:46;11.83;;;2.50;;
14116;SDS011;7137;51.436;6.544;2023-12-28T12:49:49;10.37;;;2.10;;
14116;SDS011;7137;51.436;6.544;2023-12-28T12:52:52;9.63;;;2.40;;
14116;SDS011;7137;51.436;6.544;2023-12-28T12:56:00;11.13;;;2.23;;
14116;SDS011;7137;51.436;6.544;2023-12-28T12:59:01;8.60;;;1.90;;
14116;SDS011;7137;51.436;6.544;2023-12-28T13:02:03;11.33;;;2.40;;
14116;SDS011;7137;51.436;6.544;2023-12-28T13:05:10;10.57;;;2.60;;
14116;SDS011;7137;51.436;6.544;2023-12-28T13:08:13;11.90;;;2.23;;
14116;SDS011;7137;51.436;6.544;2023-12-28T13:11:15;9.07;;;2.23;;
14116;SDS011;7137;51.436;6.544;2023-12-28T13:18:13;10.03;;;2.30;;
14116;SDS011;7137;51.436;6.544;2023-12-28T13:21:16;12.90;;;2.33;;
14116;SDS011;7137;51.436;6.544;2023-12-28T13:24:17;7.67;;;2.00;;
14116;SDS011;7137;51.436;6.544;2023-12-28T13:27:19;11.67;;;2.10;;
14116;SDS011;7137;51.436;6.544;2023-12-28T13:30:20;13.63;;;2.20;;
14116;SDS011;7137;51.436;6.544;2023-12-28T13:33:23;11.30;;;2.40;;
14116;SDS011;7137;51.436;6.544;2023-12-28T13:36:26;8.73;;;1.93;;
14116;SDS011;7137;51.436;6.544;2023-12-28T13:39:28;11.00;;;2.37;;
14116;SDS011;7137;51.436;6.544;2023-12-28T13:42:30;10.93;;;2.17;;
14116;SDS011;7137;51.436;6.544;2023-12-28T13:45:31;8.80;;;2.20;;
14116;SDS011;7137;51.436;6.544;2023-12-28T13:48:33;10.40;;;2.27;;
14116;SDS011;7137;51.436;6.544;2023-12-28T13:51:37;9.10;;;2.33;;
14116;SDS011;7137;51.436;6.544;2023-12-28T13:54:38;9.63;;;2.20;;
14116;SDS011;7137;51.436;6.544;2023-12-28T13:57:40;11.13;;;2.43;;
14116;SDS011;7137;51.436;6.544;2023-12-28T14:00:42;9.83;;;2.03;;
14116;SDS011;7137;51.436;6.544;2023-12-28T14:03:43;9.70;;;2.23;;
14116;SDS011;7137;51.436;6.544;2023-12-28T14:06:47;10.10;;;2.30;;
14116;SDS011;7137;51.436;6.544;2023-12-28T14:09:48;8.40;;;1.83;;
14116;SDS011;7137;51.436;6.544;2023-12-28T14:12:50;9.13;;;1.87;;
14116;SDS011;7137;51.436;6.544;2023-12-28T14:15:51;9.13;;;2.30;;
14116;SDS011;7137;51.436;6.544;2023-12-28T14:18:52;10.17;;;2.20;;
14116;SDS011;7137;51.436;6.544;2023-12-28T14:21:56;8.73;;;2.37;;
14116;SDS011;7137;51.436;6.544;2023-12-28T14:24:57;11.10;;;2.10;;
14116;SDS011;7137;51.436;6.544;2023-12-28T14:28:00;9.63;;;2.07;;
14116;SDS011;7137;51.436;6.544;2023-12-28T14:31:02;9.53;;;2.33;;
14116;SDS011;7137;51.436;6.544;2023-12-28T14:34:04;10.70;;;2.20;;
14116;SDS011;7137;51.436;6.544;2023-12-28T14:37:08;9.00;;;2.10;;
14116;SDS011;7137;51.436;6.544;2023-12-28T14:40:10;9.97;;;2.57;;
14116;SDS011;7137;51.436;6.544;2023-12-28T14:43:12;7.37;;;1.80;;
14116;SDS011;7137;51.436;6.544;2023-12-28T14:46:13;8.83;;;2.43;;
14116;SDS011;7137;51.436;6.544;2023-12-28T14:49:15;7.60;;;2.00;;
14116;SDS011;7137;51.436;6.544;2023-12-28T14:52:17;10.33;;;2.47;;
14116;SDS011;7137;51.436;6.544;2023-12-28T14:55:19;8.43;;;2.40;;
14116;SDS011;7137;51.436;6.544;2023-12-28T14:58:23;11.50;;;2.03;;
14116;SDS011;7137;51.436;6.544;2023-12-28T15:01:24;8.40;;;2.10;;
14116;SDS011;7137;51.436;6.544;2023-12-28T15:04:26;11.67;;;1.90;;
14116;SDS011;7137;51.436;6.544;2023-12-28T15:07:28;11.27;;;2.03;;
14116;SDS011;7137;51.436;6.544;2023-12-28T15:10:30;11.13;;;2.13;;
14116;SDS011;7137;51.436;6.544;2023-12-28T15:13:32;7.93;;;1.87;;
14116;SDS011;7137;51.436;6.544;2023-12-28T15:16:34;10.20;;;2.20;;
14116;SDS011;7137;51.436;6.544;2023-12-28T15:19:36;9.60;;;2.00;;
14116;SDS011;7137;51.436;6.544;2023-12-28T15:22:40;8.17;;;1.90;;
14116;SDS011;7137;51.436;6.544;2023-12-28T15:25:42;14.00;;;2.30;;
14116;SDS011;7137;51.436;6.544;2023-12-28T15:28:45;10.83;;;2.37;;
14116;SDS011;7137;51.436;6.544;2023-12-28T15:31:47;10.27;;;2.40;;
14116;SDS011;7137;51.436;6.544;2023-12-28T15:34:48;11.70;;;2.50;;
14116;SDS011;7137;51.436;6.544;2023-12-28T15:37:51;10.90;;;2.20;;
14116;SDS011;7137;51.436;6.544;2023-12-28T15:40:52;7.77;;;2.33;;
14116;SDS011;7137;51.436;6.544;2023-12-28T15:43:54;10.83;;;2.47;;
14116;SDS011;7137;51.436;6.544;2023-12-28T15:46:55;7.90;;;2.30;;
14116;SDS011;7137;51.436;6.544;2023-12-28T15:49:57;11.40;;;2.27;;
14116;SDS011;7137;51.436;6.544;2023-12-28T15:52:59;9.97;;;2.30;;
14116;SDS011;7137;51.436;6.544;2023-12-28T15:56:01;11.70;;;2.00;;
14116;SDS011;7137;51.436;6.544;2023-12-28T15:59:02;7.67;;;1.83;;
14116;SDS011;7137;51.436;6.544;2023-12-28T16:02:04;14.37;;;2.77;;
14116;SDS011;7137;51.436;6.544;2023-12-28T16:05:05;10.97;;;2.27;;
14116;SDS011;7137;51.436;6.544;2023-12-28T16:08:09;10.80;;;2.10;;
14116;SDS011;7137;51.436;6.544;2023-12-28T16:11:10;12.00;;;2.40;;
14116;SDS011;7137;51.436;6.544;2023-12-28T16:14:12;10.23;;;2.30;;
14116;SDS011;7137;51.436;6.544;2023-12-28T16:17:14;7.93;;;2.10;;
14116;SDS011;7137;51.436;6.544;2023-12-28T16:20:16;11.90;;;2.40;;
14116;SDS011;7137;51.436;6.544;2023-12-28T16:23:20;12.00;;;2.30;;
14116;SDS011;7137;51.436;6.544;2023-12-28T16:26:22;9.07;;;1.80;;
14116;SDS011;7137;51.436;6.544;2023-12-28T16:29:24;7.97;;;1.90;;
14116;SDS011;7137;51.436;6.544;2023-12-28T16:32:26;9.13;;;2.00;;
14116;SDS011;7137;51.436;6.544;2023-12-28T16:35:27;9.63;;;2.03;;
14116;SDS011;7137;51.436;6.544;2023-12-28T16:38:30;8.53;;;1.73;;
14116;SDS011;7137;51.436;6.544;2023-12-28T16:41:31;10.10;;;2.33;;
14116;SDS011;7137;51.436;6.544;2023-12-28T16:44:33;8.20;;;2.20;;
14116;SDS011;7137;51.436;6.544;2023-12-28T16:47:34;7.73;;;2.43;;
14116;SDS011;7137;51.436;6.544;2023-12-28T16:50:36;7.83;;;1.90;;
14116;SDS011;7137;51.436;6.544;2023-12-28T16:53:40;9.43;;;1.93;;
14116;SDS011;7137;51.436;6.544;2023-12-28T16:56:41;9.73;;;2.30;;
14116;SDS011;7137;51.436;6.544;2023-12-28T16:59:43;7.80;;;2.13;;
14116;SDS011;7137;51.436;6.544;2023-12-28T17:02:44;7.23;;;2.03;;
14116;SDS011;7137;51.436;6.544;2023-12-28T17:05:46;9.27;;;2.80;;
14116;SDS011;7137;51.436;6.544;2023-12-28T17:08:49;7.40;;;1.90;;
14116;SDS011;7137;51.436;6.544;2023-12-28T17:11:53;6.50;;;2.20;;
14116;SDS011;7137;51.436;6.544;2023-12-28T17:15:07;9.23;;;2.17;;
14116;SDS011;7137;51.436;6.544;2023-12-28T17:18:10;10.90;;;2.37;;
14116;SDS011;7137;51.436;6.544;2023-12-28T17:21:12;7.90;;;1.73;;
14116;SDS011;7137;51.436;6.544;2023-12-28T17:24:19;8.63;;;2.00;;
14116;SDS011;7137;51.436;6.544;2023-12-28T17:27:26;9.83;;;2.13;;
14116;SDS011;7137;51.436;6.544;2023-12-28T17:30:29;8.17;;;1.93;;
14116;SDS011;7137;51.436;6.544;2023-12-28T17:33:32;7.20;;;1.87;;
14116;SDS011;7137;51.436;6.544;2023-12-28T17:36:34;8.23;;;1.73;;
14116;SDS011;7137;51.436;6.544;2023-12-28T17:39:38;8.77;;;2.10;;
14116;SDS011;7137;51.436;6.544;2023-12-28T17:42:41;7.57;;;2.23;;
14116;SDS011;7137;51.436;6.544;2023-12-28T17:45:51;9.83;;;2.13;;
14116;SDS011;7137;51.436;6.544;2023-12-28T17:48:59;9.03;;;2.00;;
14116;SDS011;7137;51.436;6.544;2023-12-28T17:52:03;8.57;;;1.97;;
14116;SDS011;7137;51.436;6.544;2023-12-28T17:55:07;10.73;;;2.70;;
14116;SDS011;7137;51.436;6.544;2023-12-28T17:58:09;10.00;;;2.47;;
14116;SDS011;7137;51.436;6.544;2023-12-28T18:01:10;10.33;;;3.03;;
14116;SDS011;7137;51.436;6.544;2023-12-28T18:04:12;8.93;;;2.37;;
14116;SDS011;7137;51.436;6.544;2023-12-28T18:07:14;9.73;;;2.77;;
14116;SDS011;7137;51.436;6.544;2023-12-28T18:10:17;10.33;;;3.43;;
14116;SDS011;7137;51.436;6.544;2023-12-28T18:13:18;8.30;;;2.30;;
14116;SDS011;7137;51.436;6.544;2023-12-28T18:16:20;7.43;;;2.10;;
14116;SDS011;7137;51.436;6.544;2023-12-28T18:19:21;10.00;;;2.20;;
14116;SDS011;7137;51.436;6.544;2023-12-28T18:22:23;6.47;;;1.80;;
14116;SDS011;7137;51.436;6.544;2023-12-28T18:25:26;7.57;;;1.90;;
14116;SDS011;7137;51.436;6.544;2023-12-28T18:28:29;8.83;;;2.03;;
14116;SDS011;7137;51.436;6.544;2023-12-28T18:31:31;7.10;;;1.83;;
14116;SDS011;7137;51.436;6.544;2023-12-28T18:34:33;8.97;;;1.80;;
14116;SDS011;7137;51.436;6.544;2023-12-28T18:37:34;5.63;;;1.93;;
14116;SDS011;7137;51.436;6.544;2023-12-28T18:40:40;10.47;;;2.17;;